createdAt,value
2018-10-17T00:00:00.670Z,95.00
2018-10-17T00:02:29.597Z,95.00
2018-10-17T00:04:58.441Z,95.00
2018-10-17T00:07:27.370Z,95.00
2018-10-17T00:09:56.901Z,95.10
2018-10-17T00:12:25.699Z,95.10
2018-10-17T00:14:54.496Z,95.10
2018-10-17T00:17:23.335Z,95.10
2018-10-17T00:19:52.093Z,95.20
2018-10-17T00:22:20.962Z,95.30
2018-10-17T00:24:49.785Z,95.30
2018-10-17T00:27:18.657Z,95.40
2018-10-17T00:29:47.509Z,95.50
2018-10-17T00:32:16.647Z,95.50
2018-10-17T00:34:45.398Z,95.60
2018-10-17T00:37:14.596Z,95.90
2018-10-17T00:39:43.602Z,95.70
2018-10-17T00:42:12.366Z,95.80
2018-10-17T00:44:41.198Z,95.90
2018-10-17T00:47:10.317Z,96.00
2018-10-17T00:49:39.064Z,96.10
2018-10-17T00:52:07.927Z,96.10
2018-10-17T00:54:36.716Z,96.20
2018-10-17T00:57:05.526Z,96.40
2018-10-17T00:59:34.366Z,96.50
2018-10-17T01:02:03.434Z,96.60
2018-10-17T01:04:32.244Z,96.80
2018-10-17T01:07:01.024Z,97.20
2018-10-17T01:09:29.823Z,97.00
2018-10-17T01:11:58.574Z,97.20
2018-10-17T01:14:27.425Z,97.10
2018-10-17T01:16:56.230Z,97.30
2018-10-17T01:19:25.104Z,97.40
2018-10-17T01:21:53.875Z,97.50
2018-10-17T01:24:22.712Z,97.50
2018-10-17T01:26:51.774Z,97.60
2018-10-17T01:29:20.627Z,97.70
2018-10-17T01:31:49.373Z,97.80
2018-10-17T01:34:18.317Z,97.80
2018-10-17T01:36:47.126Z,97.90
2018-10-17T01:39:15.851Z,98.10
2018-10-17T01:41:44.610Z,98.10
2018-10-17T01:44:13.461Z,98.10
2018-10-17T01:46:44.529Z,98.20
2018-10-17T01:49:16.380Z,98.20
2018-10-17T01:51:46.162Z,98.40
2018-10-17T01:54:14.920Z,98.40
2018-10-17T01:56:43.681Z,98.50
2018-10-17T01:59:12.527Z,98.60
2018-10-17T02:01:41.241Z,98.70
2018-10-17T02:04:09.925Z,98.70
2018-10-17T02:06:38.773Z,98.80
2018-10-17T02:09:08.963Z,98.80
2018-10-17T02:11:38.242Z,98.80
2018-10-17T02:14:07.201Z,99.00
2018-10-17T02:16:36.066Z,99.00
2018-10-17T02:19:05.079Z,99.10
2018-10-17T02:21:33.806Z,99.10
2018-10-17T02:24:02.567Z,99.20
2018-10-17T02:26:31.357Z,99.30
2018-10-17T02:29:00.187Z,99.40
2018-10-17T02:31:29.007Z,99.40
2018-10-17T02:33:57.780Z,99.50
2018-10-17T02:36:26.667Z,99.50
2018-10-17T02:38:55.437Z,99.50
2018-10-17T02:41:25.313Z,99.50
2018-10-17T02:43:54.345Z,99.50
2018-10-17T02:46:23.052Z,99.40
2018-10-17T02:48:51.857Z,99.50
2018-10-17T02:51:20.711Z,99.60
2018-10-17T02:53:49.523Z,99.70
2018-10-17T02:56:18.387Z,99.90
2018-10-17T02:58:47.135Z,99.90
2018-10-17T03:01:16.016Z,99.90
2018-10-17T03:03:44.718Z,99.90
2018-10-17T03:06:13.574Z,99.90
2018-10-17T03:08:42.457Z,99.90
2018-10-17T03:11:11.802Z,99.90
2018-10-17T03:13:40.555Z,99.90
2018-10-17T03:16:09.405Z,99.90
2018-10-17T03:18:38.305Z,99.90
2018-10-17T03:21:07.255Z,99.90
2018-10-17T03:23:36.169Z,99.90
2018-10-17T03:26:05.182Z,99.90
2018-10-17T03:28:33.883Z,99.90
2018-10-17T03:31:02.862Z,99.90
2018-10-17T03:33:31.738Z,99.90
2018-10-17T03:36:00.631Z,99.90
2018-10-17T03:38:29.436Z,99.90
2018-10-17T03:40:58.235Z,99.90
2018-10-17T03:43:27.157Z,99.90
2018-10-17T03:45:56.144Z,99.90
2018-10-17T03:48:24.928Z,99.90
2018-10-17T03:50:53.814Z,99.80
2018-10-17T03:53:22.627Z,99.80
2018-10-17T03:55:51.362Z,99.80
2018-10-17T03:58:20.430Z,99.90
2018-10-17T04:00:49.303Z,99.90
2018-10-17T04:03:18.410Z,99.90
2018-10-17T04:05:47.223Z,99.90
2018-10-17T04:08:15.919Z,99.90
2018-10-17T04:10:44.769Z,99.90
2018-10-17T04:13:13.512Z,99.90
2018-10-17T04:15:42.456Z,99.90
2018-10-17T04:18:11.287Z,99.90
2018-10-17T04:20:40.041Z,99.90
2018-10-17T04:23:09.084Z,99.90
2018-10-17T04:25:37.933Z,99.80
2018-10-17T04:28:06.697Z,99.90
2018-10-17T04:30:35.458Z,99.90
2018-10-17T04:33:04.264Z,99.90
2018-10-17T04:35:33.111Z,99.90
2018-10-17T04:38:01.980Z,99.90
2018-10-17T04:40:31.481Z,99.90
2018-10-17T04:43:00.334Z,99.90
2018-10-17T04:45:29.157Z,99.90
2018-10-17T04:47:58.076Z,99.90
2018-10-17T04:50:26.820Z,99.90
2018-10-17T04:52:55.605Z,99.90
2018-10-17T04:55:24.416Z,99.90
2018-10-17T04:57:53.244Z,99.90
2018-10-17T05:00:21.919Z,99.90
2018-10-17T05:02:50.728Z,99.90
2018-10-17T05:05:19.546Z,99.90
2018-10-17T05:07:48.358Z,99.90
2018-10-17T05:10:17.308Z,99.90
2018-10-17T05:12:46.156Z,99.90
2018-10-17T05:15:15.069Z,99.90
2018-10-17T05:17:43.782Z,99.90
2018-10-17T05:20:12.601Z,99.90
2018-10-17T05:22:41.404Z,99.90
2018-10-17T05:25:10.482Z,99.90
2018-10-17T05:27:39.218Z,99.90
2018-10-17T05:30:20.350Z,99.90
2018-10-17T05:32:49.268Z,99.90
2018-10-17T05:35:18.087Z,99.90
2018-10-17T05:37:46.901Z,99.90
2018-10-17T05:40:15.705Z,99.90
2018-10-17T05:42:44.656Z,99.90
2018-10-17T05:45:13.473Z,99.90
2018-10-17T05:47:42.461Z,99.90
2018-10-17T05:50:11.280Z,99.90
2018-10-17T05:52:40.073Z,99.90
2018-10-17T05:55:09.153Z,99.90
2018-10-17T05:57:37.938Z,99.90
2018-10-17T06:00:08.401Z,99.90
2018-10-17T06:02:38.076Z,99.90
2018-10-17T06:05:08.161Z,99.90
2018-10-17T06:07:36.994Z,99.90
2018-10-17T06:10:06.699Z,99.90
2018-10-17T06:12:35.675Z,99.90
2018-10-17T06:15:04.504Z,99.90
2018-10-17T06:17:33.489Z,99.90
2018-10-17T06:20:02.368Z,99.90
2018-10-17T06:22:31.232Z,99.90
2018-10-17T06:25:00.103Z,99.90
2018-10-17T06:27:28.948Z,99.90
2018-10-17T06:29:57.879Z,99.90
2018-10-17T06:32:26.768Z,99.90
2018-10-17T06:34:55.528Z,99.90
2018-10-17T06:37:24.303Z,99.90
2018-10-17T06:39:53.226Z,99.90
2018-10-17T06:42:22.119Z,99.90
2018-10-17T06:44:50.864Z,99.90
2018-10-17T06:47:19.805Z,99.90
2018-10-17T06:49:48.578Z,99.90
2018-10-17T06:52:17.376Z,99.90
2018-10-17T06:54:46.209Z,99.90
2018-10-17T06:57:15.057Z,99.90
2018-10-17T06:59:44.445Z,99.90
2018-10-17T07:02:13.307Z,99.90
2018-10-17T07:04:41.958Z,99.90
2018-10-17T07:07:10.904Z,99.90
2018-10-17T07:09:39.681Z,99.90
2018-10-17T07:12:08.528Z,99.90
2018-10-17T07:14:37.420Z,99.90
2018-10-17T07:17:06.423Z,99.90
2018-10-17T07:19:35.320Z,99.90
2018-10-17T07:22:05.080Z,99.90
2018-10-17T07:24:33.976Z,99.90
2018-10-17T07:27:02.807Z,99.90
2018-10-17T07:29:31.782Z,99.90
2018-10-17T07:32:00.591Z,99.90
2018-10-17T07:34:29.428Z,99.90
2018-10-17T07:36:58.196Z,99.90
2018-10-17T07:39:27.076Z,99.90
2018-10-17T07:41:55.868Z,99.90
2018-10-17T07:44:24.522Z,99.90
2018-10-17T07:46:53.580Z,99.90
2018-10-17T07:49:22.405Z,99.90
2018-10-17T07:51:51.307Z,99.90
2018-10-17T07:54:20.261Z,99.90
2018-10-17T07:56:49.251Z,99.90
2018-10-17T07:59:18.149Z,99.90
2018-10-17T08:01:47.071Z,99.90
2018-10-17T08:04:16.005Z,99.90
2018-10-17T08:06:44.879Z,99.90
2018-10-17T08:09:13.607Z,99.90
2018-10-17T08:11:42.378Z,99.90
2018-10-17T08:14:11.387Z,99.90
2018-10-17T08:16:40.210Z,99.90
2018-10-17T08:19:09.125Z,99.90
2018-10-17T08:21:37.940Z,99.90
2018-10-17T08:24:06.949Z,99.90
2018-10-17T08:26:35.754Z,99.90
2018-10-17T08:29:04.559Z,99.90
2018-10-17T08:31:33.416Z,99.90
2018-10-17T08:34:02.189Z,99.90
2018-10-17T08:36:31.151Z,99.90
2018-10-17T08:38:59.773Z,99.90
2018-10-17T08:41:28.567Z,99.90
2018-10-17T08:43:57.390Z,99.90
2018-10-17T08:46:26.460Z,99.90
2018-10-17T08:48:55.202Z,99.90
2018-10-17T08:51:23.980Z,99.90
2018-10-17T08:53:52.842Z,99.90
2018-10-17T08:56:21.561Z,99.90
2018-10-17T08:58:50.386Z,99.90
2018-10-17T09:01:19.271Z,99.90
2018-10-17T09:03:48.106Z,99.90
2018-10-17T09:06:17.126Z,99.90
2018-10-17T09:08:45.923Z,99.90
2018-10-17T09:11:14.815Z,99.90
2018-10-17T09:13:43.608Z,99.90
2018-10-17T09:16:12.522Z,99.90
2018-10-17T09:18:41.342Z,99.90
2018-10-17T09:21:10.477Z,99.90
2018-10-17T09:23:39.084Z,99.90
2018-10-17T09:26:07.992Z,99.90
2018-10-17T09:28:36.788Z,99.90
2018-10-17T09:31:05.815Z,99.90
2018-10-17T09:33:35.060Z,99.90
2018-10-17T09:36:04.165Z,99.90
2018-10-17T09:38:33.045Z,99.90
2018-10-17T09:41:01.902Z,99.90
2018-10-17T09:43:30.676Z,99.90
2018-10-17T09:45:59.566Z,99.80
2018-10-17T09:48:28.483Z,99.90
2018-10-17T09:50:57.495Z,99.90
2018-10-17T09:53:26.775Z,99.90
2018-10-17T09:55:55.531Z,99.80
2018-10-17T09:58:24.404Z,99.30
2018-10-17T10:00:58.601Z,99.50
2018-10-17T10:03:27.427Z,99.20
2018-10-17T10:05:56.412Z,99.00
2018-10-17T10:08:25.231Z,98.80
2018-10-17T10:10:54.100Z,98.80
2018-10-17T10:13:22.922Z,98.50
2018-10-17T10:15:51.906Z,98.30
2018-10-17T10:18:20.668Z,98.20
2018-10-17T10:20:49.517Z,98.10
2018-10-17T10:23:18.388Z,97.90
2018-10-17T10:25:47.114Z,97.90
2018-10-17T10:28:16.131Z,97.30
2018-10-17T10:30:44.896Z,97.00
2018-10-17T10:33:13.890Z,96.20
2018-10-17T10:35:42.729Z,96.40
2018-10-17T10:38:12.471Z,96.50
2018-10-17T10:40:41.426Z,96.50
2018-10-17T10:43:10.259Z,96.50
2018-10-17T10:45:40.065Z,96.40
2018-10-17T10:48:08.761Z,96.60
2018-10-17T10:50:38.489Z,96.80
2018-10-17T10:53:07.423Z,96.60
2018-10-17T10:55:36.195Z,96.20
2018-10-17T10:58:05.180Z,96.30
2018-10-17T11:00:34.517Z,96.40
2018-10-17T11:03:03.378Z,96.00
2018-10-17T11:05:32.287Z,95.90
2018-10-17T11:08:08.413Z,96.00
2018-10-17T11:10:37.114Z,96.10
2018-10-17T11:13:07.155Z,96.10
2018-10-17T11:15:37.004Z,95.70
2018-10-17T11:18:06.076Z,94.90
2018-10-17T11:20:34.891Z,95.00
2018-10-17T11:23:03.784Z,95.20
2018-10-17T11:25:32.593Z,94.70
2018-10-17T11:28:09.885Z,94.70
2018-10-17T11:30:38.627Z,94.70
2018-10-17T11:33:07.591Z,94.90
2018-10-17T11:35:36.529Z,94.80
2018-10-17T11:38:05.514Z,94.80
2018-10-17T11:40:34.518Z,94.60
2018-10-17T11:43:03.510Z,94.90
2018-10-17T11:45:32.459Z,94.70
2018-10-17T11:48:01.272Z,94.30
2018-10-17T11:50:30.075Z,94.20
2018-10-17T11:52:58.903Z,94.10
2018-10-17T11:55:27.825Z,93.70
2018-10-17T11:57:56.742Z,93.70
2018-10-17T12:00:25.558Z,93.60
2018-10-17T12:02:54.523Z,93.20
2018-10-17T12:05:23.522Z,93.20
2018-10-17T12:07:52.173Z,92.90
2018-10-17T12:10:21.043Z,92.40
2018-10-17T12:12:49.931Z,91.90
2018-10-17T12:15:18.905Z,91.50
2018-10-17T12:17:47.905Z,90.90
2018-10-17T12:20:16.733Z,90.60
2018-10-17T12:22:46.050Z,89.20
2018-10-17T12:25:15.331Z,87.90
2018-10-17T12:27:44.239Z,85.80
2018-10-17T12:30:14.271Z,84.90
2018-10-17T12:32:43.141Z,85.40
2018-10-17T12:35:12.394Z,85.70
2018-10-17T12:37:41.197Z,85.70
2018-10-17T12:40:11.019Z,85.70
2018-10-17T12:42:39.864Z,84.50
2018-10-17T12:45:08.874Z,80.90
2018-10-17T12:47:37.658Z,78.50
2018-10-17T12:50:08.229Z,76.90
2018-10-17T12:52:37.182Z,75.80
2018-10-17T12:55:07.399Z,75.30
2018-10-17T12:57:36.187Z,76.20
2018-10-17T13:00:05.614Z,77.10
2018-10-17T13:02:34.403Z,76.30
2018-10-17T13:05:03.838Z,74.20
2018-10-17T13:07:32.709Z,72.00
2018-10-17T13:10:01.602Z,69.80
2018-10-17T13:12:30.375Z,66.80
2018-10-17T13:14:59.197Z,64.30
2018-10-17T13:17:27.978Z,62.30
2018-10-17T13:19:56.857Z,60.70
2018-10-17T13:22:25.820Z,61.30
2018-10-17T13:24:54.660Z,61.10
2018-10-17T13:27:23.519Z,63.10
2018-10-17T13:29:52.320Z,65.00
2018-10-17T13:32:21.075Z,65.90
2018-10-17T13:34:49.900Z,66.90
2018-10-17T13:37:18.838Z,67.90
2018-10-17T13:39:47.595Z,69.00
2018-10-17T13:42:16.501Z,70.60
2018-10-17T13:44:45.290Z,71.30
2018-10-17T13:47:14.186Z,71.70
2018-10-17T13:49:43.044Z,71.40
2018-10-17T13:52:11.851Z,71.60
2018-10-17T13:54:40.748Z,71.40
2018-10-17T13:57:09.594Z,71.70
2018-10-17T13:59:38.505Z,72.70
2018-10-17T14:02:07.289Z,72.30
2018-10-17T14:04:36.984Z,72.40
2018-10-17T14:07:06.919Z,72.50
2018-10-17T14:09:35.636Z,72.80
2018-10-17T14:12:04.501Z,72.20
2018-10-17T14:14:33.385Z,71.30
2018-10-17T14:17:02.255Z,71.40
2018-10-17T14:19:31.135Z,71.50
2018-10-17T14:21:59.911Z,71.70
2018-10-17T14:24:28.746Z,72.40
2018-10-17T14:26:57.607Z,73.20
2018-10-17T14:29:26.504Z,73.60
2018-10-17T14:31:55.933Z,74.70
2018-10-17T14:34:24.814Z,75.50
2018-10-17T14:36:53.825Z,76.10
2018-10-17T14:39:22.916Z,75.20
2018-10-17T14:41:51.694Z,75.70
2018-10-17T14:44:22.646Z,75.40
2018-10-17T14:46:51.565Z,75.80
2018-10-17T14:49:20.324Z,76.80
2018-10-17T14:51:49.166Z,77.70
2018-10-17T14:54:18.097Z,78.20
2018-10-17T14:56:46.841Z,79.00
2018-10-17T14:59:15.826Z,79.40
2018-10-17T15:01:44.690Z,80.00
2018-10-17T15:04:13.722Z,80.90
2018-10-17T15:06:42.650Z,81.20
2018-10-17T15:09:15.564Z,81.50
2018-10-17T15:11:46.743Z,82.00
2018-10-17T15:14:17.481Z,82.50
2018-10-17T15:16:46.392Z,82.80
2018-10-17T15:19:18.065Z,83.20
2018-10-17T15:21:46.847Z,83.70
2018-10-17T15:24:15.589Z,84.40
2018-10-17T15:26:44.326Z,85.00
2018-10-17T15:29:13.150Z,86.20
2018-10-17T15:31:41.893Z,87.30
2018-10-17T15:34:10.740Z,88.20
2018-10-17T15:36:39.623Z,89.00
2018-10-17T15:39:10.684Z,89.60
2018-10-17T15:41:39.641Z,89.90
2018-10-17T15:44:09.116Z,90.10
2018-10-17T15:46:39.346Z,90.20
2018-10-17T15:49:08.254Z,90.50
2018-10-17T15:51:37.342Z,90.70
2018-10-17T15:54:06.212Z,90.80
2018-10-17T15:56:35.119Z,90.80
2018-10-17T15:59:03.987Z,91.00
2018-10-17T16:01:32.750Z,91.20
2018-10-17T16:04:07.151Z,91.30
2018-10-17T16:06:40.860Z,91.50
2018-10-17T16:09:15.512Z,91.60
2018-10-17T16:11:51.561Z,91.70
2018-10-17T16:14:25.891Z,92.00
2018-10-17T16:17:00.399Z,92.00
2018-10-17T16:19:34.747Z,92.00
2018-10-17T16:22:09.603Z,91.70
2018-10-17T16:24:42.987Z,91.50
2018-10-17T16:27:16.774Z,91.40
2018-10-17T16:29:51.323Z,91.40
2018-10-17T16:32:25.251Z,91.40
2018-10-17T16:34:59.237Z,91.30
2018-10-17T16:37:32.309Z,91.40
2018-10-17T16:40:07.617Z,91.50
2018-10-17T16:42:41.390Z,91.60
2018-10-17T16:45:15.674Z,91.80
2018-10-17T16:50:38.294Z,91.90
2018-10-17T16:53:11.203Z,92.10
2018-10-17T16:55:44.674Z,92.20
2018-10-17T16:58:18.715Z,92.40
2018-10-17T17:00:52.097Z,92.50
2018-10-17T17:03:26.660Z,92.60
2018-10-17T17:05:59.084Z,92.70
2018-10-17T17:08:34.209Z,92.70
2018-10-17T17:11:09.021Z,92.80
2018-10-17T17:13:43.279Z,93.00
2018-10-17T17:16:16.195Z,93.00
2018-10-17T17:18:51.013Z,93.10
2018-10-17T17:21:24.160Z,93.30
2018-10-17T17:23:59.524Z,93.50
2018-10-17T17:26:32.649Z,93.50
2018-10-17T17:29:06.914Z,93.80
2018-10-17T17:31:40.866Z,94.00
2018-10-17T17:34:22.933Z,94.10
2018-10-17T17:37:16.001Z,94.40
2018-10-17T17:40:18.664Z,94.20
2018-10-17T17:46:08.875Z,94.40
2018-10-17T17:48:46.357Z,94.40
2018-10-17T17:51:31.625Z,94.50
2018-10-17T17:54:40.241Z,94.60
2018-10-17T17:57:24.256Z,94.70
2018-10-17T18:00:05.773Z,94.90
2018-10-17T18:02:44.264Z,95.00
2018-10-17T18:05:25.178Z,95.10
2018-10-17T18:08:04.146Z,95.10
2018-10-17T18:10:46.242Z,95.30
2018-10-17T18:13:19.151Z,95.40
2018-10-17T18:15:52.678Z,95.60
2018-10-17T18:18:28.233Z,95.80
2018-10-17T18:21:03.362Z,95.90
2018-10-17T18:23:37.730Z,96.00
2018-10-17T18:26:13.845Z,96.20
2018-10-17T18:28:47.525Z,96.30
2018-10-17T18:31:21.738Z,96.50
2018-10-17T18:33:57.508Z,96.60
2018-10-17T18:36:32.151Z,96.60
2018-10-17T18:39:07.219Z,96.70
2018-10-17T18:41:42.764Z,96.70
2018-10-17T18:45:05.475Z,96.80
2018-10-17T18:47:40.975Z,96.90
2018-10-17T18:50:15.195Z,97.10
2018-10-17T18:52:49.361Z,97.10
2018-10-17T18:55:21.674Z,97.20
2018-10-17T18:57:55.006Z,97.30
2018-10-17T19:00:29.369Z,97.50
2018-10-17T19:03:03.052Z,97.40
2018-10-17T19:05:35.010Z,97.40
2018-10-17T19:08:08.358Z,97.60
2018-10-17T19:10:41.665Z,97.80
2018-10-17T19:13:16.061Z,97.90
2018-10-17T19:15:48.861Z,98.10
2018-10-17T19:18:21.770Z,98.30
2018-10-17T19:20:54.690Z,98.40
2018-10-17T19:23:30.408Z,98.50
2018-10-17T19:26:04.249Z,98.60
2018-10-17T19:28:38.132Z,98.60
2018-10-17T19:31:15.006Z,98.70
2018-10-17T19:33:48.372Z,98.80
2018-10-17T19:36:22.319Z,99.00
2018-10-17T19:38:56.112Z,99.10
2018-10-17T19:41:30.257Z,99.20
2018-10-17T19:44:04.217Z,99.40
2018-10-17T19:46:38.678Z,99.50
2018-10-17T19:49:12.739Z,99.60
2018-10-17T19:51:57.851Z,99.80
2018-10-17T19:54:37.126Z,99.90
2018-10-17T19:57:10.091Z,99.90
2018-10-17T19:59:44.539Z,99.90
2018-10-17T20:02:19.360Z,99.90
2018-10-17T20:04:52.922Z,99.90
2018-10-17T20:07:26.695Z,99.90
2018-10-17T20:10:01.363Z,99.90
2018-10-17T20:12:37.637Z,99.90
2018-10-17T20:15:13.899Z,99.90
2018-10-17T20:17:48.636Z,99.90
2018-10-17T20:20:23.940Z,99.90
2018-10-17T20:22:59.018Z,99.90
2018-10-17T20:25:33.321Z,99.90
2018-10-17T20:28:08.819Z,99.90
2018-10-17T20:30:42.546Z,99.90
2018-10-17T20:33:14.462Z,99.90
2018-10-17T20:35:46.789Z,99.90
2018-10-17T20:38:25.830Z,99.90
2018-10-17T20:40:59.363Z,99.90
2018-10-17T20:43:33.051Z,99.90
2018-10-17T20:46:05.977Z,99.90
2018-10-17T20:48:40.441Z,99.90
2018-10-17T20:51:17.557Z,99.90
2018-10-17T20:53:46.299Z,99.90
2018-10-17T20:56:15.164Z,99.90
2018-10-17T20:58:48.831Z,99.90
2018-10-17T21:01:21.913Z,99.90
2018-10-17T21:03:55.288Z,99.90
2018-10-17T21:06:29.624Z,99.90
2018-10-17T21:09:02.683Z,99.90
2018-10-17T21:11:36.093Z,99.90
2018-10-17T21:14:04.872Z,99.90
2018-10-17T21:16:33.674Z,99.90
2018-10-17T21:19:02.422Z,99.90
2018-10-17T21:21:31.132Z,99.90
2018-10-17T21:23:59.858Z,99.90
2018-10-17T21:26:28.605Z,99.90
2018-10-17T21:28:57.321Z,99.90
2018-10-17T21:31:26.000Z,99.90
2018-10-17T21:33:54.751Z,99.90
2018-10-17T21:36:23.463Z,99.90
2018-10-17T21:38:52.248Z,99.90
2018-10-17T21:41:20.966Z,99.90
2018-10-17T21:43:54.062Z,99.90
2018-10-17T21:46:22.781Z,99.90
2018-10-17T21:48:51.536Z,99.90
2018-10-17T21:51:20.252Z,99.90
2018-10-17T21:53:49.037Z,99.90
2018-10-17T21:56:17.742Z,99.90
2018-10-17T21:58:46.492Z,99.90
2018-10-17T22:01:15.254Z,99.90
2018-10-17T22:03:46.872Z,99.90
2018-10-17T22:06:17.694Z,99.90
2018-10-17T22:08:49.111Z,99.90
2018-10-17T22:11:17.936Z,99.90
2018-10-17T22:13:48.371Z,99.90
2018-10-17T22:16:18.105Z,99.90
2018-10-17T22:18:51.379Z,99.90
2018-10-17T22:21:20.050Z,99.90
2018-10-17T22:23:49.591Z,99.90
2018-10-17T22:26:19.712Z,99.90
2018-10-17T22:28:48.566Z,99.90
2018-10-17T22:31:17.278Z,99.90
2018-10-17T22:33:46.053Z,99.90
2018-10-17T22:36:14.827Z,99.90
2018-10-17T22:38:45.081Z,99.90
2018-10-17T22:41:14.054Z,99.90
2018-10-17T22:43:42.763Z,99.90
2018-10-17T22:46:11.477Z,99.90
2018-10-17T22:48:42.642Z,99.90
2018-10-17T22:51:11.484Z,99.90
2018-10-17T22:53:40.254Z,99.90
2018-10-17T22:56:13.716Z,99.90
2018-10-17T22:58:45.183Z,99.90
2018-10-17T23:01:14.095Z,99.90
2018-10-17T23:03:42.866Z,99.90
2018-10-17T23:06:14.513Z,99.90
2018-10-17T23:08:44.939Z,99.90
2018-10-17T23:11:13.772Z,99.90
2018-10-17T23:13:42.438Z,99.90
2018-10-17T23:16:11.346Z,99.90
2018-10-17T23:18:41.448Z,99.90
2018-10-17T23:21:10.440Z,99.90
2018-10-17T23:23:41.413Z,99.90
2018-10-17T23:26:10.411Z,99.90
2018-10-17T23:28:39.177Z,99.90
2018-10-17T23:31:08.009Z,99.90
2018-10-17T23:33:36.724Z,99.90
2018-10-17T23:36:05.425Z,99.90
2018-10-17T23:38:35.005Z,99.90
2018-10-17T23:41:03.705Z,99.90
2018-10-17T23:43:32.390Z,99.90
2018-10-17T23:46:01.138Z,99.90
2018-10-17T23:48:29.832Z,99.90
2018-10-17T23:50:58.497Z,99.90
2018-10-17T23:53:27.163Z,99.90
2018-10-17T23:55:55.891Z,99.90
2018-10-17T23:58:24.681Z,99.90
